createdAt,value
2022-11-19T00:01:24.558Z,9.50
2022-11-19T00:03:53.183Z,9.50
2022-11-19T00:06:22.657Z,9.50
2022-11-19T00:08:49.821Z,9.50
2022-11-19T00:11:40.173Z,9.50
2022-11-19T00:14:08.516Z,9.50
2022-11-19T00:16:35.204Z,9.50
2022-11-19T00:19:01.820Z,9.50
2022-11-19T00:21:28.455Z,9.50
2022-11-19T00:23:55.777Z,9.50
2022-11-19T00:26:22.855Z,9.50
2022-11-19T00:28:49.733Z,9.50
2022-11-19T00:31:17.209Z,9.60
2022-11-19T00:33:45.469Z,9.50
2022-11-19T00:36:14.998Z,9.50
2022-11-19T00:38:42.496Z,9.50
2022-11-19T00:41:09.173Z,9.50
2022-11-19T00:43:48.640Z,9.50
2022-11-19T00:46:15.582Z,9.50
2022-11-19T00:48:42.367Z,9.50
2022-11-19T00:51:09.841Z,9.50
2022-11-19T00:53:37.029Z,9.40
2022-11-19T00:56:06.784Z,9.40
2022-11-19T00:58:33.649Z,9.40
2022-11-19T01:01:00.372Z,9.30
2022-11-19T01:03:27.480Z,9.30
2022-11-19T01:05:54.326Z,9.20
2022-11-19T01:08:22.048Z,9.20
2022-11-19T01:10:48.814Z,9.10
2022-11-19T01:13:33.989Z,9.10
2022-11-19T01:16:02.066Z,9.10
2022-11-19T01:18:29.057Z,9.00
2022-11-19T01:20:55.785Z,9.00
2022-11-19T01:23:22.913Z,8.90
2022-11-19T01:25:49.695Z,8.90
2022-11-19T01:28:16.336Z,8.80
2022-11-19T01:30:43.976Z,8.70
2022-11-19T01:33:10.805Z,8.70
2022-11-19T01:35:37.691Z,9.40
2022-11-19T01:38:05.581Z,8.60
2022-11-19T01:40:33.117Z,8.60
2022-11-19T01:42:59.766Z,8.50
2022-11-19T01:45:33.703Z,8.60
2022-11-19T01:48:11.163Z,8.50
2022-11-19T01:50:42.782Z,8.40
2022-11-19T01:53:10.005Z,8.40
2022-11-19T01:55:38.655Z,8.40
2022-11-19T01:58:07.132Z,8.30
2022-11-19T02:00:34.251Z,8.30
2022-11-19T02:03:01.055Z,8.20
2022-11-19T02:05:28.549Z,8.20
2022-11-19T02:07:59.002Z,8.20
2022-11-19T02:10:38.356Z,8.10
2022-11-19T02:13:42.012Z,8.10
2022-11-19T02:16:37.459Z,8.00
2022-11-19T02:19:33.816Z,8.10
2022-11-19T02:22:09.544Z,8.00
2022-11-19T02:24:59.074Z,8.00
2022-11-19T02:28:00.438Z,8.00
2022-11-19T02:30:37.377Z,7.90
2022-11-19T02:33:03.968Z,7.90
2022-11-19T02:35:42.612Z,7.80
2022-11-19T02:38:42.531Z,7.80
2022-11-19T02:41:40.014Z,7.80
2022-11-19T02:44:41.162Z,7.70
2022-11-19T02:47:13.130Z,7.70
2022-11-19T02:49:45.106Z,7.60
2022-11-19T02:52:14.575Z,7.60
2022-11-19T02:54:41.308Z,7.60
2022-11-19T02:57:11.044Z,7.50
2022-11-19T03:00:01.594Z,7.50
2022-11-19T03:02:51.618Z,7.40
2022-11-19T03:05:24.574Z,7.30
2022-11-19T03:07:51.320Z,7.30
2022-11-19T03:10:20.029Z,7.30
2022-11-19T03:13:28.264Z,7.30
2022-11-19T03:16:15.326Z,7.20
2022-11-19T03:18:53.691Z,7.20
2022-11-19T03:21:38.536Z,7.10
2022-11-19T03:24:31.424Z,7.00
2022-11-19T03:27:21.645Z,7.00
2022-11-19T03:29:51.740Z,7.00
2022-11-19T03:32:31.161Z,6.90
2022-11-19T03:35:03.197Z,6.90
2022-11-19T03:37:31.242Z,6.80
2022-11-19T03:40:00.742Z,6.80
2022-11-19T03:42:28.034Z,6.70
2022-11-19T03:45:04.628Z,6.60
2022-11-19T03:47:35.649Z,6.50
2022-11-19T03:50:26.988Z,6.50
2022-11-19T03:52:54.189Z,6.50
2022-11-19T03:55:27.343Z,6.50
2022-11-19T03:57:53.972Z,6.40
2022-11-19T04:00:20.714Z,6.40
2022-11-19T04:02:47.348Z,6.30
2022-11-19T04:05:14.122Z,6.30
2022-11-19T04:07:40.766Z,6.30
2022-11-19T04:10:07.752Z,6.20
2022-11-19T04:12:34.384Z,6.20
2022-11-19T04:15:01.016Z,6.20
2022-11-19T04:17:27.660Z,6.20
2022-11-19T04:19:54.292Z,6.20
2022-11-19T04:22:20.954Z,6.20
2022-11-19T04:24:47.643Z,6.20
2022-11-19T04:27:14.394Z,6.20
2022-11-19T04:29:41.021Z,6.20
2022-11-19T04:32:07.725Z,6.10
2022-11-19T04:34:34.384Z,6.10
2022-11-19T04:37:01.092Z,6.10
2022-11-19T04:39:27.757Z,6.10
2022-11-19T04:41:54.397Z,6.10
2022-11-19T04:44:21.182Z,6.10
2022-11-19T04:46:47.855Z,6.20
2022-11-19T04:49:14.591Z,6.10
2022-11-19T04:51:41.308Z,6.10
2022-11-19T04:54:10.757Z,6.20
2022-11-19T04:56:37.629Z,6.20
2022-11-19T04:59:04.672Z,6.20
2022-11-19T05:01:31.467Z,6.20
2022-11-19T05:03:58.228Z,6.20
2022-11-19T05:06:25.138Z,6.20
2022-11-19T05:08:51.760Z,6.20
2022-11-19T05:11:18.420Z,6.20
2022-11-19T05:13:45.073Z,6.20
2022-11-19T05:16:11.773Z,6.20
2022-11-19T05:18:38.462Z,6.20
2022-11-19T05:21:05.479Z,6.20
2022-11-19T05:23:32.095Z,6.30
2022-11-19T05:25:58.893Z,6.20
2022-11-19T05:28:37.939Z,6.20
2022-11-19T05:31:05.695Z,6.20
2022-11-19T05:33:34.208Z,6.20
2022-11-19T05:36:01.748Z,6.10
2022-11-19T05:38:28.365Z,6.10
2022-11-19T05:40:55.019Z,6.20
2022-11-19T05:43:21.681Z,6.10
2022-11-19T05:45:48.362Z,6.10
2022-11-19T05:48:15.513Z,6.10
2022-11-19T05:50:42.859Z,6.00
2022-11-19T05:53:10.070Z,6.00
2022-11-19T05:55:36.862Z,5.90
2022-11-19T05:58:03.530Z,5.90
2022-11-19T06:00:30.198Z,5.90
2022-11-19T06:02:56.919Z,5.90
2022-11-19T06:05:23.597Z,5.90
2022-11-19T06:07:50.250Z,5.90
2022-11-19T06:10:16.898Z,5.90
2022-11-19T06:12:45.708Z,5.90
2022-11-19T06:15:13.072Z,5.90
2022-11-19T06:17:39.715Z,6.00
2022-11-19T06:20:08.783Z,6.00
2022-11-19T06:22:36.313Z,6.00
2022-11-19T06:25:04.142Z,6.00
2022-11-19T06:27:30.881Z,5.90
2022-11-19T06:29:57.526Z,5.90
2022-11-19T06:32:24.209Z,5.90
2022-11-19T06:34:50.820Z,5.90
2022-11-19T06:37:17.469Z,5.90
2022-11-19T06:39:44.092Z,5.90
2022-11-19T06:42:29.771Z,5.80
2022-11-19T06:44:56.371Z,5.80
2022-11-19T06:47:22.987Z,5.80
2022-11-19T06:49:49.590Z,5.80
2022-11-19T06:52:16.209Z,5.80
2022-11-19T06:54:43.431Z,5.80
2022-11-19T06:57:10.530Z,5.80
2022-11-19T06:59:38.906Z,5.70
2022-11-19T07:02:06.114Z,5.60
2022-11-19T07:04:32.849Z,5.60
2022-11-19T07:06:59.576Z,5.60
2022-11-19T07:09:26.239Z,5.50
2022-11-19T07:11:52.937Z,5.50
2022-11-19T07:14:19.563Z,5.50
2022-11-19T07:16:46.240Z,5.50
2022-11-19T07:19:12.974Z,5.50
2022-11-19T07:21:39.786Z,5.50
2022-11-19T07:24:09.008Z,5.50
2022-11-19T07:26:37.064Z,5.50
2022-11-19T07:29:07.083Z,5.50
2022-11-19T07:31:34.516Z,5.50
2022-11-19T07:34:01.396Z,5.50
2022-11-19T07:36:28.146Z,5.50
2022-11-19T07:38:54.777Z,5.50
2022-11-19T07:41:39.947Z,5.50
2022-11-19T07:44:06.740Z,5.50
2022-11-19T07:46:33.468Z,5.50
2022-11-19T07:49:00.125Z,5.40
2022-11-19T07:51:27.325Z,5.40
2022-11-19T07:53:55.475Z,5.30
2022-11-19T07:56:22.892Z,5.30
2022-11-19T07:58:49.631Z,5.30
2022-11-19T08:01:19.153Z,5.30
2022-11-19T08:03:50.593Z,5.30
2022-11-19T08:06:21.405Z,5.30
2022-11-19T08:08:48.407Z,5.30
2022-11-19T08:11:16.742Z,5.30
2022-11-19T08:13:43.699Z,5.30
2022-11-19T08:16:12.959Z,5.30
2022-11-19T08:18:39.755Z,5.30
2022-11-19T08:21:11.734Z,5.30
2022-11-19T08:23:39.501Z,5.20
2022-11-19T08:26:07.556Z,5.30
2022-11-19T08:28:34.372Z,5.30
2022-11-19T08:31:09.069Z,5.40
2022-11-19T08:33:36.393Z,5.40
2022-11-19T08:36:03.777Z,5.40
2022-11-19T08:38:34.543Z,5.40
2022-11-19T08:41:22.360Z,5.40
2022-11-19T08:43:49.001Z,5.40
2022-11-19T08:46:15.624Z,5.40
2022-11-19T08:48:42.487Z,5.40
2022-11-19T08:51:14.698Z,5.40
2022-11-19T08:53:41.354Z,5.40
2022-11-19T08:56:08.482Z,5.40
2022-11-19T08:58:35.943Z,5.40
2022-11-19T09:01:10.671Z,5.40
2022-11-19T09:03:37.717Z,5.40
2022-11-19T09:06:05.459Z,5.30
2022-11-19T09:08:32.525Z,5.30
2022-11-19T09:10:59.219Z,5.30
2022-11-19T09:13:25.983Z,5.30
2022-11-19T09:15:52.622Z,5.30
2022-11-19T09:18:19.316Z,5.20
2022-11-19T09:20:45.996Z,5.20
2022-11-19T09:23:12.663Z,5.20
2022-11-19T09:25:39.302Z,5.20
2022-11-19T09:28:05.967Z,5.10
2022-11-19T09:30:32.645Z,5.10
2022-11-19T09:33:00.153Z,5.10
2022-11-19T09:35:26.772Z,5.10
2022-11-19T09:37:53.424Z,5.10
2022-11-19T09:40:23.160Z,5.00
2022-11-19T09:43:10.299Z,5.00
2022-11-19T09:45:58.098Z,5.00
2022-11-19T09:48:34.461Z,5.00
2022-11-19T09:51:14.007Z,5.00
2022-11-19T09:53:55.888Z,5.00
2022-11-19T09:56:30.910Z,5.00
2022-11-19T09:58:58.870Z,4.90
2022-11-19T10:01:28.181Z,4.90
2022-11-19T10:03:55.065Z,4.90
2022-11-19T10:06:25.477Z,5.00
2022-11-19T10:08:55.739Z,5.00
2022-11-19T10:11:48.525Z,5.10
2022-11-19T10:14:52.762Z,5.20
2022-11-19T10:17:34.214Z,5.30
2022-11-19T10:20:03.828Z,5.50
2022-11-19T10:23:12.751Z,5.70
2022-11-19T10:25:44.301Z,5.90
2022-11-19T10:28:10.947Z,6.20
2022-11-19T10:30:40.856Z,6.50
2022-11-19T10:33:18.609Z,6.70
2022-11-19T10:35:53.408Z,6.90
2022-11-19T10:38:42.950Z,7.00
2022-11-19T10:41:17.715Z,7.20
2022-11-19T10:43:50.476Z,7.20
2022-11-19T10:46:22.109Z,7.20
2022-11-19T10:48:54.220Z,7.10
2022-11-19T10:51:24.889Z,7.00
2022-11-19T10:53:53.380Z,7.00
2022-11-19T10:56:22.898Z,6.90
2022-11-19T10:58:57.404Z,6.90
2022-11-19T11:01:36.641Z,6.90
2022-11-19T11:04:21.128Z,6.80
2022-11-19T11:06:57.961Z,6.80
2022-11-19T11:09:34.595Z,6.70
2022-11-19T11:12:35.938Z,6.70
2022-11-19T11:15:15.544Z,6.70
2022-11-19T11:17:44.594Z,6.60
2022-11-19T11:20:17.347Z,6.60
2022-11-19T11:22:48.512Z,6.60
2022-11-19T11:25:27.352Z,6.60
2022-11-19T11:28:15.424Z,6.60
2022-11-19T11:31:03.099Z,6.50
2022-11-19T11:33:54.125Z,6.50
2022-11-19T11:36:25.330Z,6.50
2022-11-19T11:38:55.244Z,6.40
2022-11-19T11:42:05.542Z,6.40
2022-11-19T11:44:32.415Z,6.30
2022-11-19T11:47:03.200Z,6.30
2022-11-19T11:49:35.060Z,6.30
2022-11-19T11:52:06.877Z,6.20
2022-11-19T11:54:33.638Z,6.30
2022-11-19T11:57:18.976Z,6.30
2022-11-19T11:59:46.030Z,6.20
2022-11-19T12:02:32.348Z,6.10
2022-11-19T12:05:07.464Z,6.10
2022-11-19T12:07:46.032Z,6.20
2022-11-19T12:10:21.851Z,6.10
2022-11-19T12:13:14.639Z,6.10
2022-11-19T12:16:09.776Z,6.10
2022-11-19T12:18:54.677Z,6.10
2022-11-19T12:21:42.224Z,6.10
2022-11-19T12:24:17.702Z,6.20
2022-11-19T12:26:59.174Z,6.20
2022-11-19T12:29:40.962Z,6.20
2022-11-19T12:32:20.453Z,6.20
2022-11-19T12:34:56.411Z,6.20
2022-11-19T12:37:31.995Z,6.20
2022-11-19T12:40:25.032Z,6.20
2022-11-19T12:43:21.322Z,6.30
2022-11-19T12:46:01.246Z,6.30
2022-11-19T12:48:46.347Z,6.30
2022-11-19T12:51:18.852Z,6.30
2022-11-19T12:53:45.421Z,6.30
2022-11-19T12:56:42.808Z,6.30
2022-11-19T12:59:38.730Z,6.30
2022-11-19T13:02:36.542Z,6.30
2022-11-19T13:05:32.949Z,6.30
2022-11-19T13:08:13.140Z,6.30
2022-11-19T13:10:45.436Z,6.30
2022-11-19T13:13:16.857Z,6.20
2022-11-19T13:15:48.184Z,6.20
2022-11-19T13:18:17.434Z,6.10
2022-11-19T13:21:01.442Z,6.00
2022-11-19T13:23:33.939Z,6.00
2022-11-19T13:26:05.911Z,6.00
2022-11-19T13:28:57.023Z,6.00
2022-11-19T13:31:48.585Z,6.00
2022-11-19T13:34:43.215Z,6.00
2022-11-19T13:37:58.653Z,6.00
2022-11-19T13:40:51.552Z,5.90
2022-11-19T13:43:38.865Z,5.90
2022-11-19T13:46:11.201Z,5.90
2022-11-19T13:48:43.258Z,5.90
2022-11-19T13:51:31.559Z,5.90
2022-11-19T13:54:03.016Z,5.90
2022-11-19T13:56:45.948Z,5.90
2022-11-19T13:59:42.726Z,5.90
2022-11-19T14:02:47.069Z,5.80
2022-11-19T14:05:31.807Z,5.80
2022-11-19T14:08:28.392Z,5.90
2022-11-19T14:11:00.960Z,5.80
2022-11-19T14:13:56.806Z,5.90
2022-11-19T14:17:12.300Z,5.80
2022-11-19T14:20:08.490Z,5.80
2022-11-19T14:23:11.907Z,5.80
2022-11-19T14:26:09.083Z,5.80
2022-11-19T14:28:48.494Z,5.70
2022-11-19T14:31:17.338Z,5.70
2022-11-19T14:33:46.740Z,5.60
2022-11-19T14:36:28.348Z,5.60
2022-11-19T14:38:58.559Z,5.70
2022-11-19T14:41:35.448Z,5.70
2022-11-19T14:44:11.192Z,5.70
2022-11-19T14:46:43.068Z,5.70
2022-11-19T14:49:23.881Z,5.70
2022-11-19T14:51:56.620Z,5.70
2022-11-19T14:54:32.241Z,5.70
2022-11-19T14:57:21.257Z,5.70
2022-11-19T14:59:51.169Z,5.70
2022-11-19T15:02:24.114Z,5.60
2022-11-19T15:04:59.938Z,5.60
2022-11-19T15:07:52.728Z,5.70
2022-11-19T15:10:33.005Z,5.60
2022-11-19T15:13:24.573Z,5.60
2022-11-19T15:15:54.823Z,5.60
2022-11-19T15:18:40.207Z,5.60
2022-11-19T15:21:44.511Z,5.50
2022-11-19T15:24:19.438Z,5.50
2022-11-19T15:27:19.465Z,5.50
2022-11-19T15:30:03.552Z,5.50
2022-11-19T15:32:48.863Z,5.40
2022-11-19T15:35:30.521Z,5.40
2022-11-19T15:38:09.161Z,5.40
2022-11-19T15:40:36.673Z,5.30
2022-11-19T15:43:21.999Z,5.40
2022-11-19T15:46:06.008Z,5.30
2022-11-19T15:48:57.821Z,5.30
2022-11-19T15:51:24.498Z,5.30
2022-11-19T15:53:58.652Z,5.30
2022-11-19T15:56:29.131Z,5.30
2022-11-19T15:58:55.906Z,5.20
2022-11-19T16:01:23.036Z,5.20
2022-11-19T16:03:52.510Z,5.20
2022-11-19T16:06:25.969Z,5.20
2022-11-19T16:08:57.914Z,5.20
2022-11-19T16:11:47.214Z,5.10
2022-11-19T16:14:39.897Z,5.10
2022-11-19T16:17:39.790Z,5.20
2022-11-19T16:20:12.397Z,5.10
2022-11-19T16:22:52.619Z,5.10
2022-11-19T16:25:24.793Z,5.10
2022-11-19T16:27:56.064Z,5.10
2022-11-19T16:30:28.029Z,5.00
2022-11-19T16:32:59.032Z,5.00
2022-11-19T16:35:29.275Z,5.00
2022-11-19T16:37:58.334Z,5.00
2022-11-19T16:40:25.930Z,5.00
2022-11-19T16:42:59.241Z,5.00
2022-11-19T16:45:27.877Z,5.00
2022-11-19T16:47:59.328Z,5.00
2022-11-19T16:50:27.464Z,5.00
2022-11-19T16:52:55.367Z,4.90
2022-11-19T16:55:24.973Z,4.90
2022-11-19T16:57:57.509Z,4.90
2022-11-19T17:00:29.564Z,4.80
2022-11-19T17:02:57.829Z,4.80
2022-11-19T17:05:28.537Z,4.80
2022-11-19T17:08:18.769Z,4.80
2022-11-19T17:10:45.574Z,4.90
2022-11-19T17:13:33.285Z,4.90
2022-11-19T17:16:18.223Z,4.90
2022-11-19T17:18:44.942Z,4.90
2022-11-19T17:21:32.179Z,4.80
2022-11-19T17:23:58.949Z,4.80
2022-11-19T17:26:27.480Z,4.80
2022-11-19T17:29:16.788Z,4.80
2022-11-19T17:31:47.917Z,4.80
2022-11-19T17:34:33.857Z,4.80
2022-11-19T17:37:00.667Z,4.80
2022-11-19T17:39:27.281Z,4.80
2022-11-19T17:42:15.472Z,4.80
2022-11-19T17:44:42.234Z,4.80
2022-11-19T17:47:23.294Z,4.80
2022-11-19T17:49:50.976Z,4.80
2022-11-19T17:52:31.810Z,4.80
2022-11-19T17:55:20.288Z,4.80
2022-11-19T17:57:46.924Z,4.80
2022-11-19T18:00:14.356Z,4.80
2022-11-19T18:02:41.036Z,4.80
2022-11-19T18:05:16.458Z,4.70
2022-11-19T18:07:43.131Z,4.70
2022-11-19T18:10:10.252Z,4.70
2022-11-19T18:12:36.966Z,4.80
2022-11-19T18:15:04.507Z,4.70
2022-11-19T18:17:31.145Z,4.80
2022-11-19T18:19:57.859Z,4.70
2022-11-19T18:22:24.565Z,4.70
2022-11-19T18:24:52.465Z,4.70
2022-11-19T18:27:19.224Z,4.70
2022-11-19T18:29:45.872Z,4.70
2022-11-19T18:32:15.833Z,4.70
2022-11-19T18:34:43.628Z,4.70
2022-11-19T18:37:10.364Z,4.70
2022-11-19T18:39:37.078Z,4.70
2022-11-19T18:42:04.142Z,4.70
2022-11-19T18:44:33.624Z,4.70
2022-11-19T18:47:08.441Z,4.70
2022-11-19T18:49:35.638Z,4.70
2022-11-19T18:52:04.515Z,4.70
2022-11-19T18:54:31.511Z,4.70
2022-11-19T18:56:58.533Z,4.70
2022-11-19T18:59:25.357Z,4.80
2022-11-19T19:01:55.592Z,4.80
2022-11-19T19:04:23.233Z,4.80
2022-11-19T19:06:50.203Z,4.80
2022-11-19T19:09:20.184Z,4.80
2022-11-19T19:12:12.590Z,4.80
2022-11-19T19:14:40.048Z,4.90
2022-11-19T19:17:06.686Z,4.80
2022-11-19T19:19:33.313Z,4.80
2022-11-19T19:22:00.431Z,4.80
2022-11-19T19:24:27.330Z,4.80
2022-11-19T19:26:54.203Z,4.80
2022-11-19T19:29:21.220Z,4.80
2022-11-19T19:31:48.150Z,4.80
2022-11-19T19:34:14.867Z,4.80
2022-11-19T19:36:46.445Z,4.80
2022-11-19T19:39:17.050Z,4.80
2022-11-19T19:41:43.834Z,4.80
2022-11-19T19:44:10.995Z,4.80
2022-11-19T19:46:37.637Z,4.80
2022-11-19T19:49:04.398Z,4.80
2022-11-19T19:51:32.584Z,4.80
2022-11-19T19:53:59.801Z,4.80
2022-11-19T19:56:28.638Z,4.80
2022-11-19T19:58:56.297Z,4.80
2022-11-19T20:01:26.096Z,4.80
2022-11-19T20:03:54.827Z,4.80
2022-11-19T20:06:23.197Z,4.80
2022-11-19T20:08:49.971Z,4.70
2022-11-19T20:11:20.245Z,4.70
2022-11-19T20:13:47.569Z,4.70
2022-11-19T20:16:18.299Z,4.60
2022-11-19T20:18:46.625Z,4.70
2022-11-19T20:21:16.359Z,4.70
2022-11-19T20:23:43.629Z,4.70
2022-11-19T20:26:20.262Z,4.70
2022-11-19T20:28:47.794Z,4.70
2022-11-19T20:31:19.219Z,4.70
2022-11-19T20:33:47.372Z,4.70
2022-11-19T20:36:15.496Z,4.70
2022-11-19T20:38:45.889Z,4.80
2022-11-19T20:41:33.002Z,4.80
2022-11-19T20:44:19.503Z,4.80
2022-11-19T20:46:46.816Z,4.70
2022-11-19T20:49:16.945Z,4.80
2022-11-19T20:51:44.684Z,4.70
2022-11-19T20:54:12.117Z,4.80
2022-11-19T20:56:39.465Z,4.70
2022-11-19T20:59:06.597Z,4.70
2022-11-19T21:01:34.539Z,4.70
2022-11-19T21:04:01.477Z,4.70
2022-11-19T21:06:28.485Z,4.80
2022-11-19T21:08:55.684Z,4.80
2022-11-19T21:11:22.366Z,4.80
2022-11-19T21:13:49.020Z,5.30
2022-11-19T21:16:21.392Z,4.80
2022-11-19T21:18:48.273Z,4.80
2022-11-19T21:21:16.560Z,4.80
2022-11-19T21:23:43.652Z,4.80
2022-11-19T21:26:16.852Z,4.80
2022-11-19T21:28:47.764Z,4.80
2022-11-19T21:31:19.332Z,4.80
2022-11-19T21:33:46.066Z,4.80
2022-11-19T21:36:13.422Z,4.80
2022-11-19T21:38:40.525Z,4.80
2022-11-19T21:41:07.453Z,4.80
2022-11-19T21:43:35.142Z,4.80
2022-11-19T21:46:01.855Z,4.80
2022-11-19T21:48:28.526Z,4.80
2022-11-19T21:50:55.212Z,4.80
2022-11-19T21:53:21.897Z,4.80
2022-11-19T21:55:49.452Z,4.80
2022-11-19T21:58:16.555Z,4.80
2022-11-19T22:00:44.170Z,4.80
2022-11-19T22:03:10.877Z,4.80
2022-11-19T22:05:37.656Z,4.80
2022-11-19T22:08:04.328Z,4.80
2022-11-19T22:10:30.985Z,4.80
2022-11-19T22:12:58.640Z,4.80
2022-11-19T22:15:26.331Z,4.80
2022-11-19T22:17:53.002Z,4.80
2022-11-19T22:20:19.823Z,4.70
2022-11-19T22:22:46.577Z,4.80
2022-11-19T22:25:13.849Z,4.80
2022-11-19T22:27:41.693Z,4.70
2022-11-19T22:30:10.170Z,4.70
2022-11-19T22:32:37.213Z,4.80
2022-11-19T22:35:04.719Z,4.80
2022-11-19T22:37:31.924Z,4.80
2022-11-19T22:39:58.713Z,4.70
2022-11-19T22:42:25.437Z,4.70
2022-11-19T22:44:52.916Z,4.70
2022-11-19T22:47:19.611Z,4.70
2022-11-19T22:49:46.211Z,4.70
2022-11-19T22:52:14.550Z,4.70
2022-11-19T22:54:41.898Z,4.70
2022-11-19T22:57:09.406Z,4.70
2022-11-19T22:59:36.100Z,4.70
2022-11-19T23:02:02.903Z,4.70
2022-11-19T23:04:29.635Z,4.70
2022-11-19T23:06:56.584Z,4.70
2022-11-19T23:09:23.582Z,4.70
2022-11-19T23:12:08.710Z,4.70
2022-11-19T23:14:35.362Z,4.70
2022-11-19T23:17:01.990Z,4.70
2022-11-19T23:19:28.628Z,4.70
2022-11-19T23:21:55.245Z,4.60
2022-11-19T23:24:21.876Z,4.60
2022-11-19T23:26:48.529Z,4.60
2022-11-19T23:29:15.194Z,4.60
2022-11-19T23:31:41.856Z,4.60
2022-11-19T23:34:08.551Z,4.60
2022-11-19T23:36:38.398Z,4.60
2022-11-19T23:39:06.633Z,4.60
2022-11-19T23:41:33.962Z,4.60
2022-11-19T23:44:01.233Z,4.50
2022-11-19T23:46:30.340Z,4.50
2022-11-19T23:48:58.491Z,4.50
2022-11-19T23:51:30.688Z,4.50
2022-11-19T23:53:58.114Z,5.40
2022-11-19T23:56:25.692Z,4.50
2022-11-19T23:58:52.873Z,4.60
